createdAt,value
2019-02-05T00:02:00.681Z,3.30
2019-02-05T00:04:29.949Z,3.40
2019-02-05T00:06:59.180Z,3.30
2019-02-05T00:09:28.445Z,3.40
2019-02-05T00:11:57.752Z,3.40
2019-02-05T00:14:28.840Z,3.40
2019-02-05T00:16:58.092Z,3.40
2019-02-05T00:19:27.336Z,3.40
2019-02-05T00:21:58.400Z,3.40
2019-02-05T00:24:27.613Z,3.40
2019-02-05T00:26:56.872Z,3.40
2019-02-05T00:29:26.051Z,3.40
2019-02-05T00:31:55.319Z,3.40
2019-02-05T00:34:24.645Z,3.40
2019-02-05T00:36:53.873Z,3.40
2019-02-05T00:39:23.049Z,3.40
2019-02-05T00:41:52.381Z,3.40
2019-02-05T00:44:21.590Z,3.40
2019-02-05T00:46:50.837Z,3.50
2019-02-05T00:49:20.027Z,3.50
2019-02-05T00:51:49.276Z,3.50
2019-02-05T00:54:18.522Z,3.50
2019-02-05T00:56:47.826Z,3.50
2019-02-05T00:59:17.003Z,3.50
2019-02-05T01:01:46.250Z,3.50
2019-02-05T01:04:15.579Z,3.50
2019-02-05T01:06:44.755Z,3.50
2019-02-05T01:09:14.131Z,3.50
2019-02-05T01:11:43.461Z,3.50
2019-02-05T01:14:12.715Z,3.50
2019-02-05T01:16:41.947Z,3.50
2019-02-05T01:19:11.211Z,3.50
2019-02-05T01:21:40.411Z,3.50
2019-02-05T01:24:09.711Z,3.50
2019-02-05T01:26:39.433Z,3.50
2019-02-05T01:29:08.659Z,3.50
2019-02-05T01:31:37.906Z,3.50
2019-02-05T01:34:07.092Z,3.50
2019-02-05T01:36:36.311Z,3.50
2019-02-05T01:39:06.894Z,3.50
2019-02-05T01:41:36.504Z,3.50
2019-02-05T01:44:05.933Z,3.50
2019-02-05T01:46:35.178Z,3.60
2019-02-05T01:49:04.407Z,3.50
2019-02-05T01:51:33.581Z,3.50
2019-02-05T01:54:02.861Z,3.50
2019-02-05T01:56:40.416Z,3.50
2019-02-05T01:59:03.303Z,3.50
2019-02-05T02:01:32.494Z,3.50
2019-02-05T02:04:01.674Z,3.50
2019-02-05T02:06:30.978Z,3.60
2019-02-05T02:09:00.202Z,3.50
2019-02-05T02:11:29.828Z,3.60
2019-02-05T02:13:59.172Z,3.60
2019-02-05T02:16:28.362Z,3.60
2019-02-05T02:18:57.684Z,3.50
2019-02-05T02:21:26.886Z,3.50
2019-02-05T02:23:56.337Z,3.50
2019-02-05T02:26:25.892Z,3.50
2019-02-05T02:28:55.138Z,3.50
2019-02-05T02:31:24.441Z,3.50
2019-02-05T02:33:53.668Z,3.60
2019-02-05T02:36:25.930Z,3.50
2019-02-05T02:38:55.167Z,3.60
2019-02-05T02:41:24.488Z,3.50
2019-02-05T02:43:53.752Z,3.50
2019-02-05T02:46:23.024Z,3.50
2019-02-05T02:48:52.267Z,3.50
2019-02-05T02:51:21.471Z,3.50
2019-02-05T02:53:50.729Z,3.50
2019-02-05T02:56:19.974Z,3.50
2019-02-05T02:58:49.275Z,3.50
2019-02-05T03:01:18.463Z,3.50
2019-02-05T03:03:47.750Z,3.50
2019-02-05T03:06:16.989Z,3.50
2019-02-05T03:08:46.263Z,3.50
2019-02-05T03:11:17.509Z,3.50
2019-02-05T03:13:46.720Z,3.50
2019-02-05T03:16:15.997Z,3.50
2019-02-05T03:18:45.243Z,3.50
2019-02-05T03:21:16.227Z,3.50
2019-02-05T03:23:45.477Z,3.50
2019-02-05T03:26:14.727Z,3.50
2019-02-05T03:28:44.291Z,3.50
2019-02-05T03:31:13.553Z,3.50
2019-02-05T03:33:42.845Z,3.50
2019-02-05T03:36:12.080Z,3.50
2019-02-05T03:38:41.350Z,3.50
2019-02-05T03:41:10.629Z,3.50
2019-02-05T03:43:39.886Z,3.50
2019-02-05T03:46:09.218Z,3.50
2019-02-05T03:48:42.290Z,3.50
2019-02-05T03:51:14.830Z,3.50
2019-02-05T03:54:02.438Z,3.50
2019-02-05T03:56:46.797Z,3.50
2019-02-05T03:59:37.020Z,3.50
2019-02-05T04:02:29.124Z,3.50
2019-02-05T04:05:04.278Z,3.50
2019-02-05T04:07:54.799Z,3.50
2019-02-05T04:10:50.152Z,3.50
2019-02-05T04:13:45.372Z,3.50
2019-02-05T04:16:34.132Z,3.50
2019-02-05T04:19:13.464Z,3.50
2019-02-05T04:24:48.796Z,3.50
2019-02-05T04:27:43.713Z,3.50
2019-02-05T04:30:25.699Z,3.50
2019-02-05T04:33:00.621Z,3.50
2019-02-05T04:35:45.226Z,3.50
2019-02-05T04:38:29.543Z,3.50
2019-02-05T04:41:07.784Z,3.50
2019-02-05T04:43:58.337Z,3.50
2019-02-05T04:46:37.786Z,3.50
2019-02-05T04:49:24.401Z,3.50
2019-02-05T04:52:23.805Z,3.50
2019-02-05T04:58:03.857Z,3.50
2019-02-05T05:01:07.915Z,3.50
2019-02-05T05:04:01.384Z,3.50
2019-02-05T05:06:42.810Z,3.50
2019-02-05T05:09:16.292Z,3.50
2019-02-05T05:11:45.543Z,3.50
2019-02-05T05:14:14.792Z,3.50
2019-02-05T05:16:45.662Z,3.40
2019-02-05T05:19:14.929Z,3.50
2019-02-05T05:21:44.386Z,3.50
2019-02-05T05:24:13.634Z,3.50
2019-02-05T05:26:42.879Z,3.50
2019-02-05T05:29:12.177Z,3.50
2019-02-05T05:31:41.461Z,3.50
2019-02-05T05:34:10.732Z,3.50
2019-02-05T05:36:46.139Z,3.50
2019-02-05T05:39:15.376Z,3.40
2019-02-05T05:41:44.561Z,3.50
2019-02-05T05:44:13.816Z,3.50
2019-02-05T05:46:43.085Z,3.50
2019-02-05T05:49:12.350Z,3.40
2019-02-05T05:51:41.982Z,3.50
2019-02-05T05:54:11.158Z,3.50
2019-02-05T05:56:42.397Z,3.50
2019-02-05T05:59:11.718Z,3.50
2019-02-05T06:01:41.119Z,3.40
2019-02-05T06:04:10.385Z,3.50
2019-02-05T06:06:41.562Z,3.50
2019-02-05T06:09:10.850Z,3.50
2019-02-05T06:11:40.030Z,3.50
2019-02-05T06:14:09.309Z,3.40
2019-02-05T06:16:39.941Z,3.50
2019-02-05T06:19:09.121Z,3.50
2019-02-05T06:21:38.391Z,3.50
2019-02-05T06:24:07.669Z,3.40
2019-02-05T06:26:36.930Z,3.50
2019-02-05T06:29:06.225Z,3.50
2019-02-05T06:31:35.437Z,3.50
2019-02-05T06:34:05.615Z,3.40
2019-02-05T06:36:35.137Z,3.50
2019-02-05T06:39:07.351Z,3.40
2019-02-05T06:41:37.107Z,3.40
2019-02-05T06:44:06.488Z,3.50
2019-02-05T06:46:35.735Z,3.40
2019-02-05T06:49:05.310Z,3.40
2019-02-05T06:51:34.498Z,3.50
2019-02-05T06:54:04.079Z,3.50
2019-02-05T06:56:33.256Z,3.40
2019-02-05T06:59:02.474Z,3.40
2019-02-05T07:01:31.738Z,3.40
2019-02-05T07:04:01.017Z,3.50
2019-02-05T07:06:30.297Z,3.40
2019-02-05T07:08:59.579Z,3.40
2019-02-05T07:11:28.881Z,3.40
2019-02-05T07:13:58.350Z,3.40
2019-02-05T07:16:27.634Z,3.40
2019-02-05T07:18:56.985Z,3.40
2019-02-05T07:21:26.455Z,3.40
2019-02-05T07:23:55.787Z,3.40
2019-02-05T07:26:25.352Z,3.50
2019-02-05T07:28:58.785Z,3.40
2019-02-05T07:31:25.637Z,3.50
2019-02-05T07:33:54.967Z,3.40
2019-02-05T07:36:24.350Z,3.50
2019-02-05T07:38:53.707Z,3.50
2019-02-05T07:41:23.317Z,3.50
2019-02-05T07:43:52.780Z,3.50
2019-02-05T07:46:22.054Z,3.50
2019-02-05T07:48:51.358Z,3.50
2019-02-05T07:51:20.760Z,3.50
2019-02-05T07:53:50.072Z,3.50
2019-02-05T07:56:19.360Z,3.50
2019-02-05T07:58:48.655Z,3.60
2019-02-05T08:01:22.371Z,3.50
2019-02-05T08:03:52.367Z,3.60
2019-02-05T08:06:21.682Z,3.60
2019-02-05T08:08:50.969Z,3.60
2019-02-05T08:11:20.241Z,3.60
2019-02-05T08:13:49.538Z,3.60
2019-02-05T08:16:19.215Z,3.70
2019-02-05T08:18:48.625Z,3.70
2019-02-05T08:21:17.897Z,3.70
2019-02-05T08:23:47.252Z,3.70
2019-02-05T08:26:16.564Z,3.70
2019-02-05T08:28:45.903Z,3.70
2019-02-05T08:31:15.173Z,3.70
2019-02-05T08:33:44.476Z,3.70
2019-02-05T08:36:13.763Z,3.70
2019-02-05T08:38:43.034Z,3.80
2019-02-05T08:41:12.338Z,3.80
2019-02-05T08:43:41.616Z,3.80
2019-02-05T08:46:12.166Z,3.80
2019-02-05T08:48:42.600Z,3.80
2019-02-05T08:51:12.238Z,3.90
2019-02-05T08:53:41.532Z,4.00
2019-02-05T08:56:10.861Z,4.00
2019-02-05T08:58:41.252Z,4.00
2019-02-05T09:01:10.515Z,4.00
2019-02-05T09:03:39.967Z,4.00
2019-02-05T09:06:09.326Z,4.00
2019-02-05T09:08:38.697Z,4.00
2019-02-05T09:11:07.987Z,4.00
2019-02-05T09:13:37.260Z,4.10
2019-02-05T09:16:06.537Z,4.10
2019-02-05T09:18:36.907Z,4.10
2019-02-05T09:21:06.177Z,4.10
2019-02-05T09:23:35.880Z,4.20
2019-02-05T09:26:05.816Z,4.20
2019-02-05T09:28:35.081Z,4.20
2019-02-05T09:31:04.404Z,4.20
2019-02-05T09:33:33.689Z,4.30
2019-02-05T09:36:04.621Z,4.30
2019-02-05T09:38:33.910Z,4.30
2019-02-05T09:41:03.191Z,4.40
2019-02-05T09:43:32.535Z,4.50
2019-02-05T09:46:01.837Z,4.60
2019-02-05T09:48:31.210Z,4.60
2019-02-05T09:51:00.523Z,4.50
2019-02-05T09:53:29.809Z,4.60
2019-02-05T09:55:59.467Z,4.60
2019-02-05T09:58:28.774Z,4.60
2019-02-05T10:00:59.755Z,4.60
2019-02-05T10:03:28.948Z,4.60
2019-02-05T10:05:58.305Z,4.70
2019-02-05T10:08:27.569Z,4.80
2019-02-05T10:10:56.862Z,4.90
2019-02-05T10:13:26.179Z,4.90
2019-02-05T10:15:55.490Z,5.00
2019-02-05T10:18:24.768Z,5.10
2019-02-05T10:20:57.002Z,5.20
2019-02-05T10:23:25.606Z,5.30
2019-02-05T10:25:54.871Z,5.30
2019-02-05T10:28:24.562Z,5.20
2019-02-05T10:30:53.937Z,5.20
2019-02-05T10:33:23.210Z,5.20
2019-02-05T10:35:52.490Z,5.20
2019-02-05T10:38:21.810Z,5.20
2019-02-05T10:40:53.622Z,5.20
2019-02-05T10:43:22.923Z,5.20
2019-02-05T10:45:52.223Z,5.20
2019-02-05T10:48:23.164Z,5.20
2019-02-05T10:50:52.438Z,5.10
2019-02-05T10:53:21.740Z,5.20
2019-02-05T10:55:51.090Z,5.30
2019-02-05T10:58:20.370Z,5.40
2019-02-05T11:00:50.076Z,5.30
2019-02-05T11:03:19.402Z,5.20
2019-02-05T11:05:48.676Z,5.30
2019-02-05T11:08:19.220Z,5.30
2019-02-05T11:10:48.452Z,5.40
2019-02-05T11:13:18.903Z,5.40
2019-02-05T11:15:48.515Z,5.40
2019-02-05T11:18:17.809Z,5.60
2019-02-05T11:20:48.151Z,5.60
2019-02-05T11:23:20.188Z,5.70
2019-02-05T11:25:49.619Z,5.70
2019-02-05T11:28:19.991Z,5.70
2019-02-05T11:30:49.292Z,5.60
2019-02-05T11:33:18.567Z,5.60
2019-02-05T11:35:47.864Z,5.60
2019-02-05T11:38:17.141Z,5.60
2019-02-05T11:40:46.507Z,5.70
2019-02-05T11:43:15.779Z,5.70
2019-02-05T11:45:45.075Z,5.60
2019-02-05T11:48:15.810Z,5.60
2019-02-05T11:50:45.110Z,5.60
2019-02-05T11:53:18.717Z,5.70
2019-02-05T11:55:47.954Z,5.70
2019-02-05T11:58:20.162Z,5.70
2019-02-05T12:00:51.080Z,5.70
2019-02-05T12:03:21.373Z,5.70
2019-02-05T12:05:53.640Z,5.80
2019-02-05T12:08:22.915Z,5.80
2019-02-05T12:10:52.223Z,5.80
2019-02-05T12:13:21.484Z,5.90
2019-02-05T12:15:50.760Z,5.90
2019-02-05T12:18:20.254Z,5.90
2019-02-05T12:20:49.551Z,6.00
2019-02-05T12:23:18.830Z,6.00
2019-02-05T12:25:48.120Z,5.90
2019-02-05T12:28:17.392Z,5.90
2019-02-05T12:30:46.745Z,5.90
2019-02-05T12:33:16.086Z,5.90
2019-02-05T12:35:45.797Z,6.10
2019-02-05T12:38:15.157Z,6.10
2019-02-05T12:40:44.513Z,6.20
2019-02-05T12:43:13.794Z,6.20
2019-02-05T12:45:47.390Z,6.30
2019-02-05T12:48:16.700Z,6.20
2019-02-05T12:50:46.329Z,6.20
2019-02-05T12:53:15.629Z,6.30
2019-02-05T12:55:44.909Z,6.30
2019-02-05T12:58:14.310Z,6.30
2019-02-05T13:00:56.640Z,6.10
2019-02-05T13:03:18.496Z,6.10
2019-02-05T13:05:48.056Z,6.20
2019-02-05T13:08:17.446Z,6.20
2019-02-05T13:10:49.088Z,6.30
2019-02-05T13:13:19.978Z,6.30
2019-02-05T13:15:52.638Z,6.30
2019-02-05T13:18:22.017Z,6.30
2019-02-05T13:20:51.381Z,6.30
2019-02-05T13:23:20.662Z,6.30
2019-02-05T13:25:49.997Z,6.30
2019-02-05T13:28:19.424Z,6.30
2019-02-05T13:30:51.557Z,6.20
2019-02-05T13:33:20.854Z,6.30
2019-02-05T13:35:50.112Z,6.30
2019-02-05T13:38:19.388Z,6.40
2019-02-05T13:40:50.409Z,6.40
2019-02-05T13:43:19.890Z,6.40
2019-02-05T13:45:49.206Z,6.30
2019-02-05T13:48:18.467Z,6.30
2019-02-05T13:50:47.759Z,6.30
2019-02-05T13:53:19.977Z,6.20
2019-02-05T13:55:49.178Z,6.20
2019-02-05T13:58:18.475Z,6.30
2019-02-05T14:00:50.281Z,6.30
2019-02-05T14:03:19.058Z,6.40
2019-02-05T14:05:48.237Z,6.40
2019-02-05T14:08:17.555Z,6.40
2019-02-05T14:10:47.499Z,6.40
2019-02-05T14:13:16.819Z,6.30
2019-02-05T14:15:48.680Z,6.30
2019-02-05T14:18:18.115Z,6.40
2019-02-05T14:20:47.450Z,6.40
2019-02-05T14:23:16.685Z,6.40
2019-02-05T14:25:45.966Z,6.50
2019-02-05T14:28:15.244Z,6.40
2019-02-05T14:30:50.749Z,6.40
2019-02-05T14:33:21.826Z,6.30
2019-02-05T14:35:52.372Z,6.40
2019-02-05T14:38:23.090Z,6.40
2019-02-05T14:40:52.353Z,6.40
2019-02-05T14:43:21.661Z,6.50
2019-02-05T14:45:52.016Z,6.50
2019-02-05T14:48:30.524Z,6.50
2019-02-05T14:51:00.987Z,6.40
2019-02-05T14:53:30.302Z,6.40
2019-02-05T14:55:59.587Z,6.40
2019-02-05T14:58:28.937Z,6.40
2019-02-05T15:00:58.285Z,6.30
2019-02-05T15:03:27.648Z,6.30
2019-02-05T15:05:56.932Z,6.30
2019-02-05T15:08:26.281Z,6.30
2019-02-05T15:10:55.959Z,6.30
2019-02-05T15:13:26.878Z,6.30
2019-02-05T15:15:56.167Z,6.30
2019-02-05T15:18:25.470Z,6.30
2019-02-05T15:20:56.434Z,6.30
2019-02-05T15:23:25.790Z,6.30
2019-02-05T15:25:56.542Z,6.20
2019-02-05T15:28:26.892Z,6.20
2019-02-05T15:30:56.265Z,6.30
2019-02-05T15:33:42.290Z,6.30
2019-02-05T15:36:22.111Z,6.20
2019-02-05T15:38:54.114Z,6.20
2019-02-05T15:41:23.438Z,6.10
2019-02-05T15:43:52.718Z,6.10
2019-02-05T15:46:22.048Z,6.10
2019-02-05T15:48:51.641Z,6.10
2019-02-05T15:51:20.890Z,6.10
2019-02-05T15:53:50.196Z,6.10
2019-02-05T15:56:19.467Z,6.10
2019-02-05T15:58:48.769Z,6.10
2019-02-05T16:01:18.106Z,6.10
2019-02-05T16:03:47.691Z,6.00
2019-02-05T16:06:16.977Z,6.00
2019-02-05T16:08:46.242Z,6.00
2019-02-05T16:11:17.323Z,6.00
2019-02-05T16:13:46.623Z,6.00
2019-02-05T16:16:24.923Z,6.00
2019-02-05T16:18:54.263Z,6.00
2019-02-05T16:21:26.309Z,6.00
2019-02-05T16:23:58.096Z,6.00
2019-02-05T16:26:26.497Z,5.90
2019-02-05T16:28:55.786Z,5.90
2019-02-05T16:31:27.831Z,5.90
2019-02-05T16:33:56.208Z,5.80
2019-02-05T16:36:25.978Z,5.80
2019-02-05T16:38:55.360Z,5.80
2019-02-05T16:41:24.681Z,5.80
2019-02-05T16:43:54.086Z,5.80
2019-02-05T16:46:23.655Z,5.70
2019-02-05T16:48:52.940Z,5.80
2019-02-05T16:51:22.161Z,5.80
2019-02-05T16:53:51.510Z,5.70
2019-02-05T16:56:20.805Z,5.70
2019-02-05T16:58:50.120Z,5.60
2019-02-05T17:01:19.686Z,5.60
2019-02-05T17:03:49.130Z,5.50
2019-02-05T17:06:18.406Z,5.50
2019-02-05T17:08:47.672Z,5.50
2019-02-05T17:11:16.990Z,5.40
2019-02-05T17:13:51.358Z,5.40
2019-02-05T17:16:24.086Z,5.30
2019-02-05T17:18:55.044Z,5.20
2019-02-05T17:21:26.669Z,5.20
2019-02-05T17:23:55.947Z,5.10
2019-02-05T17:26:25.424Z,5.10
2019-02-05T17:28:56.625Z,5.00
2019-02-05T17:31:28.028Z,5.00
2019-02-05T17:33:56.643Z,5.00
2019-02-05T17:36:25.932Z,5.00
2019-02-05T17:38:57.124Z,4.90
2019-02-05T17:41:26.407Z,4.90
2019-02-05T17:43:55.713Z,4.90
2019-02-05T17:46:25.116Z,4.90
2019-02-05T17:48:54.685Z,4.90
2019-02-05T17:51:24.054Z,4.90
2019-02-05T17:53:53.357Z,4.90
2019-02-05T17:56:22.624Z,4.90
2019-02-05T17:58:51.884Z,4.90
2019-02-05T18:01:21.192Z,4.90
2019-02-05T18:03:50.481Z,4.90
2019-02-05T18:06:20.365Z,4.90
2019-02-05T18:08:49.686Z,4.90
2019-02-05T18:11:19.193Z,4.90
2019-02-05T18:13:48.577Z,4.90
2019-02-05T18:16:17.876Z,4.90
2019-02-05T18:18:47.243Z,4.80
2019-02-05T18:21:16.524Z,4.70
2019-02-05T18:23:46.061Z,4.70
2019-02-05T18:26:15.436Z,4.60
2019-02-05T18:28:44.742Z,4.50
2019-02-05T18:31:13.998Z,4.40
2019-02-05T18:33:43.387Z,4.40
2019-02-05T18:36:12.672Z,4.30
2019-02-05T18:38:41.959Z,4.30
2019-02-05T18:41:11.252Z,4.20
2019-02-05T18:43:40.705Z,4.20
2019-02-05T18:46:12.838Z,4.10
2019-02-05T18:48:41.883Z,4.10
2019-02-05T18:51:11.249Z,4.10
2019-02-05T18:53:40.510Z,4.10
2019-02-05T18:56:10.012Z,4.10
2019-02-05T18:58:39.358Z,4.00
2019-02-05T19:01:08.736Z,4.00
2019-02-05T19:03:38.023Z,3.90
2019-02-05T19:06:07.333Z,3.90
2019-02-05T19:08:36.723Z,3.80
2019-02-05T19:11:06.038Z,3.70
2019-02-05T19:13:35.333Z,3.70
2019-02-05T19:16:06.226Z,3.60
2019-02-05T19:18:35.541Z,3.60
2019-02-05T19:21:05.474Z,3.50
2019-02-05T19:23:37.624Z,3.40
2019-02-05T19:26:09.853Z,3.40
2019-02-05T19:28:39.238Z,3.40
2019-02-05T19:31:11.070Z,3.40
2019-02-05T19:33:40.366Z,3.30
2019-02-05T19:36:09.721Z,3.30
2019-02-05T19:38:39.071Z,3.20
2019-02-05T19:41:08.439Z,3.30
2019-02-05T19:43:37.724Z,3.30
2019-02-05T19:46:08.846Z,3.40
2019-02-05T19:48:45.959Z,3.40
2019-02-05T19:51:18.165Z,3.40
2019-02-05T19:53:48.426Z,3.50
2019-02-05T19:56:17.721Z,3.50
2019-02-05T19:58:46.995Z,3.60
2019-02-05T20:01:18.507Z,3.60
2019-02-05T20:03:47.270Z,3.70
2019-02-05T20:06:16.605Z,3.70
2019-02-05T20:08:45.902Z,3.70
2019-02-05T20:11:17.224Z,3.80
2019-02-05T20:13:53.139Z,3.80
2019-02-05T20:16:22.612Z,3.90
2019-02-05T20:18:51.844Z,3.90
2019-02-05T20:21:22.755Z,3.90
2019-02-05T20:23:53.694Z,3.90
2019-02-05T20:26:25.794Z,3.90
2019-02-05T20:28:58.814Z,3.90
2019-02-05T20:31:28.499Z,3.90
2019-02-05T20:33:57.961Z,3.90
2019-02-05T20:36:27.339Z,3.80
2019-02-05T20:38:58.425Z,3.80
2019-02-05T20:41:27.783Z,3.60
2019-02-05T20:43:57.105Z,3.50
2019-02-05T20:46:26.630Z,3.50
2019-02-05T20:48:55.917Z,3.50
2019-02-05T20:51:25.575Z,3.40
2019-02-05T20:54:01.748Z,3.30
2019-02-05T20:56:31.870Z,3.30
2019-02-05T20:59:04.268Z,3.30
2019-02-05T21:01:38.090Z,3.20
2019-02-05T21:04:10.654Z,3.20
2019-02-05T21:06:41.143Z,3.20
2019-02-05T21:09:14.463Z,3.20
2019-02-05T21:11:44.003Z,3.20
2019-02-05T21:14:13.287Z,3.10
2019-02-05T21:16:42.634Z,3.20
2019-02-05T21:19:11.907Z,3.10
2019-02-05T21:21:41.178Z,3.10
2019-02-05T21:24:10.820Z,3.10
2019-02-05T21:26:47.882Z,3.00
2019-02-05T21:29:17.275Z,3.00
2019-02-05T21:31:48.210Z,3.00
2019-02-05T21:34:17.498Z,3.00
2019-02-05T21:36:46.819Z,3.00
2019-02-05T21:39:16.111Z,3.00
2019-02-05T21:41:45.375Z,2.90
2019-02-05T21:44:16.630Z,2.90
2019-02-05T21:46:46.549Z,2.90
2019-02-05T21:49:15.834Z,3.00
2019-02-05T21:51:45.153Z,2.90
2019-02-05T21:54:14.473Z,2.90
2019-02-05T21:56:43.796Z,3.00
2019-02-05T21:59:18.053Z,3.00
2019-02-05T22:01:47.378Z,3.00
2019-02-05T22:04:26.658Z,3.00
2019-02-05T22:06:49.241Z,3.00
2019-02-05T22:09:29.686Z,3.00
2019-02-05T22:12:02.013Z,3.10
2019-02-05T22:14:31.356Z,3.00
2019-02-05T22:17:10.001Z,3.00
2019-02-05T22:19:39.299Z,3.00
2019-02-05T22:22:08.701Z,3.10
2019-02-05T22:24:37.962Z,3.10
2019-02-05T22:27:07.708Z,3.10
2019-02-05T22:29:37.010Z,3.10
2019-02-05T22:32:07.561Z,3.10
2019-02-05T22:34:43.059Z,3.00
2019-02-05T22:37:12.354Z,3.00
2019-02-05T22:39:42.069Z,3.00
2019-02-05T22:42:12.860Z,2.90
2019-02-05T22:44:42.428Z,2.90
2019-02-05T22:47:11.781Z,2.90
2019-02-05T22:49:41.057Z,2.80
2019-02-05T22:52:10.362Z,2.80
2019-02-05T22:54:39.624Z,2.80
2019-02-05T22:57:08.902Z,2.80
2019-02-05T22:59:38.488Z,2.80
2019-02-05T23:02:07.772Z,2.80
2019-02-05T23:04:37.965Z,2.80
2019-02-05T23:07:10.177Z,2.90
2019-02-05T23:09:42.737Z,2.90
2019-02-05T23:12:15.193Z,2.80
2019-02-05T23:14:47.992Z,2.90
2019-02-05T23:17:17.254Z,2.80
2019-02-05T23:19:46.553Z,2.80
2019-02-05T23:22:15.898Z,2.90
2019-02-05T23:24:45.157Z,2.80
2019-02-05T23:27:14.476Z,2.80
2019-02-05T23:29:44.133Z,2.80
2019-02-05T23:32:13.452Z,2.80
2019-02-05T23:34:42.647Z,2.80
2019-02-05T23:37:11.907Z,2.80
2019-02-05T23:39:41.088Z,2.70
2019-02-05T23:42:10.332Z,2.70
2019-02-05T23:44:40.017Z,2.70
2019-02-05T23:47:10.961Z,2.60
2019-02-05T23:49:40.581Z,2.60
2019-02-05T23:52:09.934Z,2.60
2019-02-05T23:54:39.192Z,2.60
2019-02-05T23:57:09.991Z,2.70
2019-02-05T23:59:39.526Z,2.70
